Main page
METAR-TAF:

METAR-TAF

Airports :

Campbeltown, Scotland

Campbeltown Airport

latitude: 55-26-14N, longitude: 005-41-11W, elevation: 13 m

Current weather observation

The report was made 7 hours and 5 minutes ago, at 16:20 UTC
Wind 6 kt from the East/Southeast
Temperature 16°C
Humidity 82%
Pressure 1003 hPa
Visibility 10 km or more
Broken clouds at a height of 4800 ft

METAR: EGEC 171620Z 12006KT 9999 BKN048 16/13 Q1003

Time: 00:25 (23:25 UTC)

Forecast

The report was made 8 hours and 27 minutes ago, at 14:58 UTC
Forecast valid from 17 at 15 UTC to 17 at 17 UTC
Wind 15 kt from the South
Visibility 10 km or more
Scattered clouds at a height of 2500 ft
Temporary
from 17 at 15 UTC to 17 at 17 UTC
Wind 12 kt from the West/Southwest
Visibility: 7000 m
rain showers
Probability 30% :
Temporary
from 17 at 15 UTC to 17 at 17 UTC
Visibility: 4000 m
heavy rain showers

TAF: EGEC 171458Z 1715/1717 17015KT 9999 SCT025 TEMPO 1715/1717 25012KT 7000 SHRA PROB30 TEMPO 1715/1717 4000 +SHRA

Weather observations and forecasts of more than 4000 airports (METAR and TAF reports).

The available stations are represented by yellow and red dots on the map.

Hover mouse over dot to see the name of the station.

Then click to see weather observations and forecasts.

To change the map : click on the green buttons with a black cross to zoom in, on the green button with a dash to zoom out, or on the green arrows for adjacent maps.


METAR-TAF: